sensor_id;sensor_type;location;lat;lon;timestamp;pressure;altitude;pressure_sealevel;temperature;humidity
38812;BME280;24553;51.640;-0.752;2023-05-23T00:00:57;101793.34;;;9.68;100.00
38812;BME280;24553;51.640;-0.752;2023-05-23T00:03:23;101797.59;;;9.60;100.00
38812;BME280;24553;51.640;-0.752;2023-05-23T00:05:49;101801.84;;;9.53;100.00
38812;BME280;24553;51.640;-0.752;2023-05-23T00:08:15;101798.25;;;9.45;100.00
38812;BME280;24553;51.640;-0.752;2023-05-23T00:10:41;101800.31;;;9.33;100.00
38812;BME280;24553;51.640;-0.752;2023-05-23T00:13:06;101793.81;;;9.27;100.00
38812;BME280;24553;51.640;-0.752;2023-05-23T00:15:34;101796.06;;;9.22;100.00
38812;BME280;24553;51.640;-0.752;2023-05-23T00:18:01;101792.06;;;9.18;100.00
38812;BME280;24553;51.640;-0.752;2023-05-23T00:20:26;101796.81;;;9.14;100.00
38812;BME280;24553;51.640;-0.752;2023-05-23T00:22:52;101799.47;;;9.14;100.00
38812;BME280;24553;51.640;-0.752;2023-05-23T00:25:18;101791.84;;;9.11;100.00
38812;BME280;24553;51.640;-0.752;2023-05-23T00:27:46;101795.75;;;9.07;100.00
38812;BME280;24553;51.640;-0.752;2023-05-23T00:30:11;101802.69;;;9.08;100.00
38812;BME280;24553;51.640;-0.752;2023-05-23T00:32:36;101796.88;;;9.05;100.00
38812;BME280;24553;51.640;-0.752;2023-05-23T00:35:02;101789.06;;;9.03;100.00
38812;BME280;24553;51.640;-0.752;2023-05-23T00:37:27;101784.53;;;8.95;100.00
38812;BME280;24553;51.640;-0.752;2023-05-23T00:39:53;101791.72;;;9.03;100.00
38812;BME280;24553;51.640;-0.752;2023-05-23T00:42:18;101786.28;;;9.05;100.00
38812;BME280;24553;51.640;-0.752;2023-05-23T00:44:43;101784.66;;;9.04;100.00
38812;BME280;24553;51.640;-0.752;2023-05-23T00:47:09;101775.63;;;8.97;100.00
38812;BME280;24553;51.640;-0.752;2023-05-23T00:49:37;101792.19;;;8.99;100.00
38812;BME280;24553;51.640;-0.752;2023-05-23T00:52:03;101790.50;;;8.98;100.00
38812;BME280;24553;51.640;-0.752;2023-05-23T00:54:29;101793.47;;;8.94;100.00
38812;BME280;24553;51.640;-0.752;2023-05-23T00:56:57;101791.13;;;8.91;100.00
38812;BME280;24553;51.640;-0.752;2023-05-23T00:59:24;101784.25;;;8.99;100.00
38812;BME280;24553;51.640;-0.752;2023-05-23T01:01:50;101787.19;;;8.95;100.00
38812;BME280;24553;51.640;-0.752;2023-05-23T01:04:17;101791.06;;;9.01;100.00
38812;BME280;24553;51.640;-0.752;2023-05-23T01:06:44;101790.81;;;8.94;100.00
38812;BME280;24553;51.640;-0.752;2023-05-23T01:09:12;101783.63;;;8.87;100.00
38812;BME280;24553;51.640;-0.752;2023-05-23T01:14:48;101781.91;;;8.68;100.00
38812;BME280;24553;51.640;-0.752;2023-05-23T01:17:35;101778.28;;;8.69;100.00
38812;BME280;24553;51.640;-0.752;2023-05-23T01:20:23;101782.59;;;8.70;100.00
38812;BME280;24553;51.640;-0.752;2023-05-23T01:26:18;101786.91;;;8.99;100.00
38812;BME280;24553;51.640;-0.752;2023-05-23T01:28:50;101796.19;;;9.03;100.00
38812;BME280;24553;51.640;-0.752;2023-05-23T01:31:16;101788.25;;;9.03;100.00
38812;BME280;24553;51.640;-0.752;2023-05-23T01:33:42;101794.38;;;9.03;100.00
38812;BME280;24553;51.640;-0.752;2023-05-23T01:36:12;101797.19;;;9.02;100.00
38812;BME280;24553;51.640;-0.752;2023-05-23T01:38:37;101793.09;;;9.07;100.00
38812;BME280;24553;51.640;-0.752;2023-05-23T01:41:02;101797.25;;;9.10;100.00
38812;BME280;24553;51.640;-0.752;2023-05-23T01:43:28;101796.88;;;9.05;100.00
38812;BME280;24553;51.640;-0.752;2023-05-23T01:45:54;101793.41;;;9.04;100.00
38812;BME280;24553;51.640;-0.752;2023-05-23T01:48:22;101795.81;;;8.98;100.00
38812;BME280;24553;51.640;-0.752;2023-05-23T01:50:49;101801.25;;;8.96;100.00
38812;BME280;24553;51.640;-0.752;2023-05-23T01:53:18;101794.84;;;8.99;100.00
38812;BME280;24553;51.640;-0.752;2023-05-23T01:55:43;101798.84;;;9.03;100.00
38812;BME280;24553;51.640;-0.752;2023-05-23T01:58:09;101799.97;;;9.00;100.00
38812;BME280;24553;51.640;-0.752;2023-05-23T02:00:35;101804.44;;;9.00;100.00
38812;BME280;24553;51.640;-0.752;2023-05-23T02:03:00;101806.97;;;8.91;100.00
38812;BME280;24553;51.640;-0.752;2023-05-23T02:05:26;101802.00;;;8.88;100.00
38812;BME280;24553;51.640;-0.752;2023-05-23T02:07:52;101806.44;;;8.88;100.00
38812;BME280;24553;51.640;-0.752;2023-05-23T02:10:18;101808.94;;;8.89;100.00
38812;BME280;24553;51.640;-0.752;2023-05-23T02:12:43;101808.63;;;8.92;100.00
38812;BME280;24553;51.640;-0.752;2023-05-23T02:15:09;101817.22;;;9.04;100.00
38812;BME280;24553;51.640;-0.752;2023-05-23T02:17:34;101820.16;;;9.01;100.00
38812;BME280;24553;51.640;-0.752;2023-05-23T02:20:00;101824.59;;;9.01;100.00
38812;BME280;24553;51.640;-0.752;2023-05-23T02:22:25;101819.91;;;8.94;100.00
38812;BME280;24553;51.640;-0.752;2023-05-23T02:24:51;101819.81;;;8.86;100.00
38812;BME280;24553;51.640;-0.752;2023-05-23T02:27:16;101823.03;;;8.80;100.00
38812;BME280;24553;51.640;-0.752;2023-05-23T02:29:42;101823.63;;;8.74;100.00
38812;BME280;24553;51.640;-0.752;2023-05-23T02:32:07;101837.56;;;8.66;100.00
38812;BME280;24553;51.640;-0.752;2023-05-23T02:34:32;101833.28;;;8.65;100.00
38812;BME280;24553;51.640;-0.752;2023-05-23T02:36:58;101842.63;;;8.60;100.00
38812;BME280;24553;51.640;-0.752;2023-05-23T02:39:23;101839.09;;;8.69;100.00
38812;BME280;24553;51.640;-0.752;2023-05-23T02:41:48;101838.41;;;8.67;100.00
38812;BME280;24553;51.640;-0.752;2023-05-23T02:44:14;101851.19;;;8.71;100.00
38812;BME280;24553;51.640;-0.752;2023-05-23T02:46:39;101847.44;;;8.74;100.00
38812;BME280;24553;51.640;-0.752;2023-05-23T02:49:04;101849.28;;;8.64;100.00
38812;BME280;24553;51.640;-0.752;2023-05-23T02:51:30;101849.56;;;8.61;100.00
38812;BME280;24553;51.640;-0.752;2023-05-23T02:53:56;101849.88;;;8.58;100.00
38812;BME280;24553;51.640;-0.752;2023-05-23T02:56:22;101858.34;;;8.51;100.00
38812;BME280;24553;51.640;-0.752;2023-05-23T02:58:47;101856.69;;;8.50;100.00
38812;BME280;24553;51.640;-0.752;2023-05-23T03:01:12;101851.00;;;8.45;100.00
38812;BME280;24553;51.640;-0.752;2023-05-23T03:03:38;101852.53;;;8.48;100.00
38812;BME280;24553;51.640;-0.752;2023-05-23T03:06:05;101860.59;;;8.46;100.00
38812;BME280;24553;51.640;-0.752;2023-05-23T03:08:31;101858.53;;;8.40;100.00
38812;BME280;24553;51.640;-0.752;2023-05-23T03:10:56;101859.53;;;8.39;100.00
38812;BME280;24553;51.640;-0.752;2023-05-23T03:13:22;101864.34;;;8.54;100.00
38812;BME280;24553;51.640;-0.752;2023-05-23T03:15:47;101868.91;;;8.61;100.00
38812;BME280;24553;51.640;-0.752;2023-05-23T03:18:12;101862.81;;;8.51;100.00
38812;BME280;24553;51.640;-0.752;2023-05-23T03:20:38;101865.88;;;8.46;100.00
38812;BME280;24553;51.640;-0.752;2023-05-23T03:23:03;101855.59;;;8.43;100.00
38812;BME280;24553;51.640;-0.752;2023-05-23T03:25:28;101865.06;;;8.46;100.00
38812;BME280;24553;51.640;-0.752;2023-05-23T03:27:54;101857.41;;;8.52;100.00
38812;BME280;24553;51.640;-0.752;2023-05-23T03:30:20;101862.09;;;8.59;100.00
38812;BME280;24553;51.640;-0.752;2023-05-23T03:32:45;101859.28;;;8.70;100.00
38812;BME280;24553;51.640;-0.752;2023-05-23T03:35:10;101858.44;;;8.69;100.00
38812;BME280;24553;51.640;-0.752;2023-05-23T03:37:36;101855.66;;;8.71;100.00
38812;BME280;24553;51.640;-0.752;2023-05-23T03:40:02;101856.91;;;8.67;100.00
38812;BME280;24553;51.640;-0.752;2023-05-23T03:42:27;101848.03;;;8.68;100.00
38812;BME280;24553;51.640;-0.752;2023-05-23T03:44:53;101861.34;;;8.76;100.00
38812;BME280;24553;51.640;-0.752;2023-05-23T03:47:18;101862.69;;;8.80;100.00
38812;BME280;24553;51.640;-0.752;2023-05-23T03:49:44;101864.09;;;8.84;100.00
38812;BME280;24553;51.640;-0.752;2023-05-23T03:52:10;101861.16;;;8.87;100.00
38812;BME280;24553;51.640;-0.752;2023-05-23T03:54:35;101850.66;;;8.95;100.00
38812;BME280;24553;51.640;-0.752;2023-05-23T03:57:01;101849.84;;;8.95;100.00
38812;BME280;24553;51.640;-0.752;2023-05-23T03:59:27;101864.09;;;8.84;100.00
38812;BME280;24553;51.640;-0.752;2023-05-23T04:01:52;101868.28;;;8.77;100.00
38812;BME280;24553;51.640;-0.752;2023-05-23T04:04:17;101859.53;;;8.77;100.00
38812;BME280;24553;51.640;-0.752;2023-05-23T04:06:45;101864.53;;;8.80;100.00
38812;BME280;24553;51.640;-0.752;2023-05-23T04:09:11;101862.44;;;8.83;100.00
38812;BME280;24553;51.640;-0.752;2023-05-23T04:11:38;101856.88;;;8.77;100.00
38812;BME280;24553;51.640;-0.752;2023-05-23T04:14:03;101857.78;;;8.67;100.00
38812;BME280;24553;51.640;-0.752;2023-05-23T04:16:28;101863.78;;;8.60;100.00
38812;BME280;24553;51.640;-0.752;2023-05-23T04:18:57;101858.09;;;8.55;100.00
38812;BME280;24553;51.640;-0.752;2023-05-23T04:21:23;101858.75;;;8.57;100.00
38812;BME280;24553;51.640;-0.752;2023-05-23T04:23:48;101857.22;;;8.54;100.00
38812;BME280;24553;51.640;-0.752;2023-05-23T04:26:13;101859.44;;;8.59;100.00
38812;BME280;24553;51.640;-0.752;2023-05-23T04:28:39;101864.44;;;8.62;100.00
38812;BME280;24553;51.640;-0.752;2023-05-23T04:31:04;101866.25;;;8.61;100.00
38812;BME280;24553;51.640;-0.752;2023-05-23T04:33:30;101865.56;;;8.59;100.00
38812;BME280;24553;51.640;-0.752;2023-05-23T04:35:55;101877.25;;;8.57;100.00
38812;BME280;24553;51.640;-0.752;2023-05-23T04:38:21;101882.16;;;8.51;100.00
38812;BME280;24553;51.640;-0.752;2023-05-23T04:40:49;101877.84;;;8.50;100.00
38812;BME280;24553;51.640;-0.752;2023-05-23T04:43:15;101882.31;;;8.50;100.00
38812;BME280;24553;51.640;-0.752;2023-05-23T04:45:40;101893.13;;;8.57;100.00
38812;BME280;24553;51.640;-0.752;2023-05-23T04:48:06;101894.50;;;8.61;100.00
38812;BME280;24553;51.640;-0.752;2023-05-23T04:50:32;101901.00;;;8.76;100.00
38812;BME280;24553;51.640;-0.752;2023-05-23T04:53:00;101910.31;;;8.80;100.00
38812;BME280;24553;51.640;-0.752;2023-05-23T04:55:26;101908.91;;;8.86;100.00
38812;BME280;24553;51.640;-0.752;2023-05-23T04:57:51;101904.97;;;9.00;100.00
38812;BME280;24553;51.640;-0.752;2023-05-23T05:00:17;101914.13;;;9.05;100.00
38812;BME280;24553;51.640;-0.752;2023-05-23T05:02:42;101909.78;;;9.14;100.00
38812;BME280;24553;51.640;-0.752;2023-05-23T05:05:08;101905.03;;;9.17;100.00
38812;BME280;24553;51.640;-0.752;2023-05-23T05:07:33;101912.19;;;8.98;100.00
38812;BME280;24553;51.640;-0.752;2023-05-23T05:10:00;101915.13;;;8.94;100.00
38812;BME280;24553;51.640;-0.752;2023-05-23T05:12:25;101910.50;;;9.06;100.00
38812;BME280;24553;51.640;-0.752;2023-05-23T05:14:50;101919.56;;;9.04;100.00
38812;BME280;24553;51.640;-0.752;2023-05-23T05:17:15;101921.38;;;9.03;100.00
38812;BME280;24553;51.640;-0.752;2023-05-23T05:19:42;101926.53;;;9.05;100.00
38812;BME280;24553;51.640;-0.752;2023-05-23T05:22:07;101926.50;;;9.14;100.00
38812;BME280;24553;51.640;-0.752;2023-05-23T05:24:33;101920.16;;;9.25;100.00
38812;BME280;24553;51.640;-0.752;2023-05-23T05:26:58;101921.25;;;9.32;100.00
38812;BME280;24553;51.640;-0.752;2023-05-23T05:29:23;101922.28;;;9.39;100.00
38812;BME280;24553;51.640;-0.752;2023-05-23T05:31:49;101931.50;;;9.45;100.00
38812;BME280;24553;51.640;-0.752;2023-05-23T05:34:15;101930.84;;;9.61;100.00
38812;BME280;24553;51.640;-0.752;2023-05-23T05:36:41;101933.25;;;9.72;100.00
38812;BME280;24553;51.640;-0.752;2023-05-23T05:39:11;101929.94;;;9.88;100.00
38812;BME280;24553;51.640;-0.752;2023-05-23T05:41:37;101931.91;;;10.04;100.00
38812;BME280;24553;51.640;-0.752;2023-05-23T05:44:03;101937.66;;;10.17;100.00
38812;BME280;24553;51.640;-0.752;2023-05-23T05:46:28;101926.75;;;10.20;100.00
38812;BME280;24553;51.640;-0.752;2023-05-23T05:48:53;101918.34;;;10.25;100.00
38812;BME280;24553;51.640;-0.752;2023-05-23T05:51:19;101921.97;;;10.24;100.00
38812;BME280;24553;51.640;-0.752;2023-05-23T05:53:44;101931.59;;;10.25;100.00
38812;BME280;24553;51.640;-0.752;2023-05-23T05:56:10;101931.44;;;10.26;100.00
38812;BME280;24553;51.640;-0.752;2023-05-23T05:58:35;101922.91;;;10.33;100.00
38812;BME280;24553;51.640;-0.752;2023-05-23T06:01:01;101922.28;;;10.39;100.00
38812;BME280;24553;51.640;-0.752;2023-05-23T06:03:26;101916.31;;;10.37;100.00
38812;BME280;24553;51.640;-0.752;2023-05-23T06:05:51;101911.69;;;10.39;100.00
38812;BME280;24553;51.640;-0.752;2023-05-23T06:08:17;101913.19;;;10.41;100.00
38812;BME280;24553;51.640;-0.752;2023-05-23T06:10:42;101915.06;;;10.49;100.00
38812;BME280;24553;51.640;-0.752;2023-05-23T06:13:07;101917.63;;;10.59;100.00
38812;BME280;24553;51.640;-0.752;2023-05-23T06:15:32;101922.03;;;10.76;100.00
38812;BME280;24553;51.640;-0.752;2023-05-23T06:17:58;101916.00;;;10.92;100.00
38812;BME280;24553;51.640;-0.752;2023-05-23T06:20:23;101916.53;;;11.04;100.00
38812;BME280;24553;51.640;-0.752;2023-05-23T06:22:48;101911.25;;;11.12;100.00
38812;BME280;24553;51.640;-0.752;2023-05-23T06:25:14;101915.41;;;11.14;100.00
38812;BME280;24553;51.640;-0.752;2023-05-23T06:27:39;101916.25;;;11.15;100.00
38812;BME280;24553;51.640;-0.752;2023-05-23T06:30:05;101916.56;;;11.12;100.00
38812;BME280;24553;51.640;-0.752;2023-05-23T06:32:31;101921.38;;;11.08;100.00
38812;BME280;24553;51.640;-0.752;2023-05-23T06:34:56;101927.50;;;11.09;100.00
38812;BME280;24553;51.640;-0.752;2023-05-23T06:37:22;101922.16;;;11.43;100.00
38812;BME280;24553;51.640;-0.752;2023-05-23T06:39:47;101920.38;;;11.60;100.00
38812;BME280;24553;51.640;-0.752;2023-05-23T06:42:12;101918.56;;;11.77;100.00
38812;BME280;24553;51.640;-0.752;2023-05-23T06:44:37;101915.81;;;11.87;100.00
38812;BME280;24553;51.640;-0.752;2023-05-23T06:47:03;101915.31;;;11.99;100.00
38812;BME280;24553;51.640;-0.752;2023-05-23T06:49:28;101912.50;;;12.17;100.00
38812;BME280;24553;51.640;-0.752;2023-05-23T06:51:53;101920.66;;;12.32;100.00
38812;BME280;24553;51.640;-0.752;2023-05-23T06:54:19;101921.66;;;12.39;100.00
38812;BME280;24553;51.640;-0.752;2023-05-23T06:56:44;101920.28;;;12.43;100.00
38812;BME280;24553;51.640;-0.752;2023-05-23T06:59:10;101922.44;;;12.56;100.00
38812;BME280;24553;51.640;-0.752;2023-05-23T07:01:35;101928.41;;;12.66;100.00
38812;BME280;24553;51.640;-0.752;2023-05-23T07:04:00;101919.91;;;12.71;100.00
38812;BME280;24553;51.640;-0.752;2023-05-23T07:06:26;101920.91;;;12.78;100.00
38812;BME280;24553;51.640;-0.752;2023-05-23T07:08:52;101921.31;;;12.98;100.00
38812;BME280;24553;51.640;-0.752;2023-05-23T07:11:18;101925.13;;;13.12;100.00
38812;BME280;24553;51.640;-0.752;2023-05-23T07:13:44;101919.13;;;13.10;100.00
38812;BME280;24553;51.640;-0.752;2023-05-23T07:16:09;101925.84;;;13.45;100.00
38812;BME280;24553;51.640;-0.752;2023-05-23T07:18:34;101907.53;;;13.65;100.00
38812;BME280;24553;51.640;-0.752;2023-05-23T07:21:00;101910.13;;;13.82;100.00
38812;BME280;24553;51.640;-0.752;2023-05-23T07:23:25;101902.00;;;13.98;100.00
38812;BME280;24553;51.640;-0.752;2023-05-23T07:25:50;101903.31;;;14.02;100.00
38812;BME280;24553;51.640;-0.752;2023-05-23T07:28:16;101910.34;;;13.95;100.00
38812;BME280;24553;51.640;-0.752;2023-05-23T07:30:41;101910.00;;;13.98;100.00
38812;BME280;24553;51.640;-0.752;2023-05-23T07:33:07;101910.81;;;13.99;100.00
38812;BME280;24553;51.640;-0.752;2023-05-23T07:35:32;101921.25;;;14.08;100.00
38812;BME280;24553;51.640;-0.752;2023-05-23T07:37:57;101921.09;;;14.25;100.00
38812;BME280;24553;51.640;-0.752;2023-05-23T07:40:23;101919.09;;;14.27;100.00
38812;BME280;24553;51.640;-0.752;2023-05-23T07:42:48;101926.63;;;14.23;100.00
38812;BME280;24553;51.640;-0.752;2023-05-23T07:45:14;101925.28;;;14.42;100.00
38812;BME280;24553;51.640;-0.752;2023-05-23T07:47:40;101931.00;;;14.77;100.00
38812;BME280;24553;51.640;-0.752;2023-05-23T07:50:06;101933.38;;;15.01;100.00
38812;BME280;24553;51.640;-0.752;2023-05-23T07:52:32;101930.69;;;15.01;100.00
38812;BME280;24553;51.640;-0.752;2023-05-23T07:54:58;101931.06;;;14.98;100.00
38812;BME280;24553;51.640;-0.752;2023-05-23T07:57:23;101922.84;;;15.15;100.00
38812;BME280;24553;51.640;-0.752;2023-05-23T07:59:49;101934.56;;;15.14;100.00
38812;BME280;24553;51.640;-0.752;2023-05-23T08:02:15;101936.78;;;15.10;100.00
38812;BME280;24553;51.640;-0.752;2023-05-23T08:04:41;101935.38;;;15.14;100.00
38812;BME280;24553;51.640;-0.752;2023-05-23T08:07:06;101932.16;;;15.19;100.00
38812;BME280;24553;51.640;-0.752;2023-05-23T08:09:32;101931.53;;;15.17;100.00
38812;BME280;24553;51.640;-0.752;2023-05-23T08:11:58;101935.09;;;15.24;100.00
38812;BME280;24553;51.640;-0.752;2023-05-23T08:14:23;101932.78;;;15.36;100.00
38812;BME280;24553;51.640;-0.752;2023-05-23T08:16:49;101936.63;;;15.33;100.00
38812;BME280;24553;51.640;-0.752;2023-05-23T08:19:14;101930.56;;;15.39;100.00
38812;BME280;24553;51.640;-0.752;2023-05-23T08:21:39;101932.34;;;15.54;100.00
38812;BME280;24553;51.640;-0.752;2023-05-23T08:24:06;101928.28;;;15.36;100.00
38812;BME280;24553;51.640;-0.752;2023-05-23T08:26:31;101937.03;;;15.30;100.00
38812;BME280;24553;51.640;-0.752;2023-05-23T08:29:00;101927.81;;;15.33;100.00
38812;BME280;24553;51.640;-0.752;2023-05-23T08:31:29;101923.91;;;15.50;100.00
38812;BME280;24553;51.640;-0.752;2023-05-23T08:33:55;101921.84;;;15.67;100.00
38812;BME280;24553;51.640;-0.752;2023-05-23T08:36:21;101922.00;;;15.80;100.00
38812;BME280;24553;51.640;-0.752;2023-05-23T08:38:46;101923.09;;;15.86;100.00
38812;BME280;24553;51.640;-0.752;2023-05-23T08:41:17;101915.22;;;15.84;100.00
38812;BME280;24553;51.640;-0.752;2023-05-23T08:43:43;101920.31;;;15.79;100.00
38812;BME280;24553;51.640;-0.752;2023-05-23T08:46:08;101912.94;;;15.81;100.00
38812;BME280;24553;51.640;-0.752;2023-05-23T08:48:37;101913.47;;;15.91;100.00
38812;BME280;24553;51.640;-0.752;2023-05-23T08:51:03;101913.53;;;15.98;100.00
38812;BME280;24553;51.640;-0.752;2023-05-23T08:53:30;101919.44;;;15.94;100.00
38812;BME280;24553;51.640;-0.752;2023-05-23T08:55:57;101923.84;;;16.01;100.00
38812;BME280;24553;51.640;-0.752;2023-05-23T08:58:29;101919.19;;;16.10;100.00
38812;BME280;24553;51.640;-0.752;2023-05-23T09:00:56;101911.25;;;16.23;100.00
38812;BME280;24553;51.640;-0.752;2023-05-23T09:03:21;101919.38;;;16.36;100.00
38812;BME280;24553;51.640;-0.752;2023-05-23T09:05:48;101924.47;;;16.53;100.00
38812;BME280;24553;51.640;-0.752;2023-05-23T09:08:14;101921.22;;;16.86;100.00
38812;BME280;24553;51.640;-0.752;2023-05-23T09:10:41;101919.72;;;17.18;100.00
38812;BME280;24553;51.640;-0.752;2023-05-23T09:13:06;101923.78;;;17.07;100.00
38812;BME280;24553;51.640;-0.752;2023-05-23T09:15:33;101924.19;;;17.04;100.00
38812;BME280;24553;51.640;-0.752;2023-05-23T09:17:59;101921.50;;;17.04;100.00
38812;BME280;24553;51.640;-0.752;2023-05-23T09:20:28;101924.41;;;17.09;100.00
38812;BME280;24553;51.640;-0.752;2023-05-23T09:22:54;101921.22;;;16.86;100.00
38812;BME280;24553;51.640;-0.752;2023-05-23T09:25:20;101921.88;;;16.66;100.00
38812;BME280;24553;51.640;-0.752;2023-05-23T09:27:45;101933.50;;;16.52;100.00
38812;BME280;24553;51.640;-0.752;2023-05-23T09:30:11;101944.69;;;16.06;100.00
38812;BME280;24553;51.640;-0.752;2023-05-23T09:32:37;101935.81;;;15.84;100.00
38812;BME280;24553;51.640;-0.752;2023-05-23T09:35:05;101940.06;;;16.00;100.00
38812;BME280;24553;51.640;-0.752;2023-05-23T09:37:31;101942.56;;;16.51;100.00
38812;BME280;24553;51.640;-0.752;2023-05-23T09:39:59;101942.25;;;16.89;100.00
38812;BME280;24553;51.640;-0.752;2023-05-23T09:42:25;101942.97;;;17.11;100.00
38812;BME280;24553;51.640;-0.752;2023-05-23T09:44:55;101942.13;;;17.10;100.00
38812;BME280;24553;51.640;-0.752;2023-05-23T09:47:20;101930.47;;;17.25;100.00
38812;BME280;24553;51.640;-0.752;2023-05-23T09:49:46;101930.34;;;17.46;100.00
38812;BME280;24553;51.640;-0.752;2023-05-23T09:52:12;101937.41;;;17.67;100.00
38812;BME280;24553;51.640;-0.752;2023-05-23T09:54:38;101939.47;;;17.72;100.00
38812;BME280;24553;51.640;-0.752;2023-05-23T09:57:14;101930.16;;;17.54;100.00
38812;BME280;24553;51.640;-0.752;2023-05-23T09:59:44;101938.44;;;17.73;100.00
38812;BME280;24553;51.640;-0.752;2023-05-23T10:02:15;101937.81;;;17.64;100.00
38812;BME280;24553;51.640;-0.752;2023-05-23T10:04:42;101933.66;;;17.55;100.00
38812;BME280;24553;51.640;-0.752;2023-05-23T10:07:13;101933.84;;;17.47;100.00
38812;BME280;24553;51.640;-0.752;2023-05-23T10:09:41;101932.47;;;17.77;100.00
38812;BME280;24553;51.640;-0.752;2023-05-23T10:15:06;101931.72;;;18.17;100.00
38812;BME280;24553;51.640;-0.752;2023-05-23T10:17:55;101920.56;;;18.40;100.00
38812;BME280;24553;51.640;-0.752;2023-05-23T10:20:24;101933.16;;;18.39;100.00
38812;BME280;24553;51.640;-0.752;2023-05-23T10:22:50;101924.50;;;18.24;100.00
38812;BME280;24553;51.640;-0.752;2023-05-23T10:25:16;101928.84;;;18.38;100.00
38812;BME280;24553;51.640;-0.752;2023-05-23T10:27:41;101928.00;;;18.51;100.00
38812;BME280;24553;51.640;-0.752;2023-05-23T10:30:07;101934.78;;;18.60;100.00
38812;BME280;24553;51.640;-0.752;2023-05-23T10:32:34;101932.56;;;18.44;100.00
38812;BME280;24553;51.640;-0.752;2023-05-23T10:35:20;101924.69;;;18.42;100.00
38812;BME280;24553;51.640;-0.752;2023-05-23T10:43:08;101926.13;;;18.25;100.00
38812;BME280;24553;51.640;-0.752;2023-05-23T10:45:41;101928.00;;;18.04;100.00
38812;BME280;24553;51.640;-0.752;2023-05-23T10:48:32;101928.81;;;17.85;99.45
38812;BME280;24553;51.640;-0.752;2023-05-23T10:51:05;101933.16;;;17.99;100.00
38812;BME280;24553;51.640;-0.752;2023-05-23T10:53:34;101931.72;;;18.17;100.00
38812;BME280;24553;51.640;-0.752;2023-05-23T10:56:00;101931.31;;;18.46;100.00
38812;BME280;24553;51.640;-0.752;2023-05-23T10:58:29;101930.66;;;18.78;100.00
38812;BME280;24553;51.640;-0.752;2023-05-23T11:00:56;101937.63;;;18.92;100.00
38812;BME280;24553;51.640;-0.752;2023-05-23T11:03:47;101931.06;;;18.81;99.12
38812;BME280;24553;51.640;-0.752;2023-05-23T11:06:30;101929.63;;;18.65;99.71
38812;BME280;24553;51.640;-0.752;2023-05-23T11:14:13;101934.22;;;18.18;98.26
38812;BME280;24553;51.640;-0.752;2023-05-23T11:16:40;101939.34;;;18.20;98.14
38812;BME280;24553;51.640;-0.752;2023-05-23T11:24:19;101928.91;;;19.10;96.42
38812;BME280;24553;51.640;-0.752;2023-05-23T11:26:56;101921.38;;;19.32;94.91
38812;BME280;24553;51.640;-0.752;2023-05-23T11:29:25;101924.53;;;19.67;96.48
38812;BME280;24553;51.640;-0.752;2023-05-23T11:31:51;101928.56;;;20.08;93.34
38812;BME280;24553;51.640;-0.752;2023-05-23T11:34:19;101924.94;;;20.46;94.44
38812;BME280;24553;51.640;-0.752;2023-05-23T11:36:45;101916.19;;;20.32;90.63
38812;BME280;24553;51.640;-0.752;2023-05-23T11:39:12;101924.25;;;20.32;92.74
38812;BME280;24553;51.640;-0.752;2023-05-23T11:41:37;101924.31;;;20.25;90.72
38812;BME280;24553;51.640;-0.752;2023-05-23T11:44:10;101917.47;;;19.98;86.00
38812;BME280;24553;51.640;-0.752;2023-05-23T11:46:36;101919.69;;;20.08;89.12
38812;BME280;24553;51.640;-0.752;2023-05-23T11:49:01;101910.47;;;20.22;87.21
38812;BME280;24553;51.640;-0.752;2023-05-23T11:51:27;101914.75;;;20.30;85.67
38812;BME280;24553;51.640;-0.752;2023-05-23T11:53:53;101922.59;;;21.11;87.10
38812;BME280;24553;51.640;-0.752;2023-05-23T11:56:18;101908.16;;;21.85;84.22
38812;BME280;24553;51.640;-0.752;2023-05-23T11:58:43;101906.41;;;22.14;83.90
38812;BME280;24553;51.640;-0.752;2023-05-23T12:01:11;101907.97;;;21.68;81.97
38812;BME280;24553;51.640;-0.752;2023-05-23T12:03:48;101908.22;;;21.18;82.06
38812;BME280;24553;51.640;-0.752;2023-05-23T12:06:18;101912.53;;;20.88;83.56
38812;BME280;24553;51.640;-0.752;2023-05-23T12:08:43;101910.56;;;20.77;84.26
38812;BME280;24553;51.640;-0.752;2023-05-23T12:11:09;101917.06;;;20.88;86.30
38812;BME280;24553;51.640;-0.752;2023-05-23T12:13:35;101913.03;;;20.60;85.49
38812;BME280;24553;51.640;-0.752;2023-05-23T12:16:01;101915.56;;;20.55;84.80
38812;BME280;24553;51.640;-0.752;2023-05-23T12:18:28;101921.72;;;20.37;85.86
38812;BME280;24553;51.640;-0.752;2023-05-23T12:20:54;101909.16;;;20.49;86.26
38812;BME280;24553;51.640;-0.752;2023-05-23T12:23:24;101905.63;;;20.74;85.34
38812;BME280;24553;51.640;-0.752;2023-05-23T12:25:52;101913.09;;;21.09;86.05
38812;BME280;24553;51.640;-0.752;2023-05-23T12:28:18;101915.13;;;21.13;85.85
38812;BME280;24553;51.640;-0.752;2023-05-23T12:30:44;101901.81;;;21.49;85.40
38812;BME280;24553;51.640;-0.752;2023-05-23T12:33:10;101910.69;;;21.19;84.51
38812;BME280;24553;51.640;-0.752;2023-05-23T12:35:36;101914.47;;;21.00;86.18
38812;BME280;24553;51.640;-0.752;2023-05-23T12:38:01;101913.81;;;20.17;87.20
38812;BME280;24553;51.640;-0.752;2023-05-23T12:40:31;101907.53;;;20.23;89.05
38812;BME280;24553;51.640;-0.752;2023-05-23T12:42:56;101906.00;;;20.78;88.10
38812;BME280;24553;51.640;-0.752;2023-05-23T12:47:53;101908.09;;;20.94;87.10
38812;BME280;24553;51.640;-0.752;2023-05-23T12:50:19;101911.69;;;20.88;87.01
38812;BME280;24553;51.640;-0.752;2023-05-23T12:52:44;101911.00;;;21.11;86.44
38812;BME280;24553;51.640;-0.752;2023-05-23T12:55:11;101908.91;;;20.58;85.86
38812;BME280;24553;51.640;-0.752;2023-05-23T12:57:37;101905.13;;;20.40;86.57
38812;BME280;24553;51.640;-0.752;2023-05-23T13:00:03;101899.56;;;20.97;88.37